Time;durP1;ratioP1;P1;durP2;ratioP2;P2;SDS_P1;SDS_P2;PMS_P1;PMS_P2;Temp;Humidity;BMP_temperature;BMP_pressure;BME280_temperature;BME280_humidity;BME280_pressure;Samples;Min_cycle;Max_cycle;Signal;HPM_P1;HPM_P2
2022/06/13 00:01:43;;;;;;;9.15;7.90;;;;;;;26.35;87.11;100201.43;1681959;85;21032;-73
2022/06/13 00:04:11;;;;;;;9.95;7.80;;;;;;;26.36;87.24;100198.62;1680820;84;21148;-74
2022/06/13 00:06:40;;;;;;;10.03;7.60;;;;;;;26.27;88.25;100190.95;1691488;84;21079;-74
2022/06/13 00:09:09;;;;;;;9.58;8.08;;;;;;;26.36;87.38;100192.53;1687996;84;21071;-74
2022/06/13 00:11:36;;;;;;;9.68;8.03;;;;;;;26.47;86.55;100200.00;1689525;84;21095;-74
2022/06/13 00:14:06;;;;;;;12.23;8.48;;;;;;;26.52;85.63;100197.66;1691437;84;21051;-73
2022/06/13 00:16:33;;;;;;;10.93;8.48;;;;;;;26.46;86.13;100193.09;1690670;84;21031;-73
2022/06/13 00:19:01;;;;;;;10.90;8.05;;;;;;;26.56;85.55;100186.22;1680972;84;21067;-73
2022/06/13 00:21:32;;;;;;;10.08;8.45;;;;;;;26.65;84.56;100182.54;1633283;87;21020;-75
2022/06/13 00:24:01;;;;;;;8.93;7.78;;;;;;;26.62;83.95;100178.11;1594516;88;21532;-74
2022/06/13 00:26:32;;;;;;;10.28;7.87;;;;;;;26.69;84.08;100168.48;1679333;84;21192;-73
2022/06/13 00:29:00;;;;;;;13.70;8.58;;;;;;;26.64;85.38;100168.19;1686943;83;21552;-73
2022/06/13 00:31:27;;;;;;;14.73;7.95;;;;;;;26.67;85.55;100166.53;1671314;84;21070;-73
2022/06/13 00:33:54;;;;;;;12.30;8.05;;;;;;;26.66;85.72;100165.69;1644348;86;21019;-73
2022/06/13 00:36:23;;;;;;;10.95;7.85;;;;;;;26.85;84.36;100168.30;1649488;85;21603;-73
2022/06/13 00:38:53;;;;;;;10.13;8.35;;;;;;;26.94;83.26;100167.19;1647264;86;21015;-73
2022/06/13 00:41:28;;;;;;;13.95;8.23;;;;;;;27.00;83.23;100170.94;1647773;86;21171;-73
2022/06/13 00:43:56;;;;;;;11.88;8.50;;;;;;;26.63;85.24;100174.48;1649903;85;21157;-74
2022/06/13 00:46:34;;;;;;;10.32;8.48;;;;;;;26.61;85.70;100168.57;1649182;87;21046;-73
2022/06/13 00:49:07;;;;;;;11.33;8.60;;;;;;;26.63;84.62;100172.66;1646613;86;21082;-74
2022/06/13 00:51:39;;;;;;;12.53;8.20;;;;;;;26.58;84.65;100169.25;1645314;87;21102;-74
2022/06/13 00:54:07;;;;;;;10.60;8.25;;;;;;;26.57;84.64;100166.28;1642778;87;21044;-73
2022/06/13 00:56:36;;;;;;;10.00;8.30;;;;;;;26.57;84.71;100166.28;1647068;85;21114;-73
2022/06/13 00:59:09;;;;;;;10.15;8.58;;;;;;;26.68;84.00;100168.96;1645476;86;21673;-74
2022/06/13 01:01:36;;;;;;;10.98;8.58;;;;;;;26.58;84.37;100166.61;1649876;85;21086;-73
2022/06/13 01:04:06;;;;;;;11.78;8.63;;;;;;;26.63;83.79;100162.10;1647594;86;21095;-73
2022/06/13 01:06:41;;;;;;;15.20;8.50;;;;;;;26.51;84.54;100159.05;1647858;86;21015;-73
2022/06/13 01:09:12;;;;;;;13.40;9.25;;;;;;;26.49;84.65;100158.91;1642136;85;21558;-72
2022/06/13 01:11:47;;;;;;;15.88;9.03;;;;;;;26.46;85.00;100159.27;1648249;87;21063;-74
2022/06/13 01:14:45;;;;;;;13.28;9.08;;;;;;;26.39;85.27;100158.66;1647632;86;21079;-73
2022/06/13 01:17:39;;;;;;;11.10;8.58;;;;;;;26.28;85.00;100156.98;1650372;85;21118;-73
2022/06/13 01:20:44;;;;;;;12.70;9.08;;;;;;;26.23;85.43;100172.52;1647655;86;21154;-73
2022/06/13 01:23:23;;;;;;;11.68;8.63;;;;;;;26.25;86.13;100177.11;1624846;87;21535;-73
2022/06/13 01:26:06;;;;;;;13.45;8.90;;;;;;;26.16;86.52;100190.38;1648828;86;21711;-74
2022/06/13 01:29:04;;;;;;;10.00;8.75;;;;;;;25.84;88.82;100211.67;1645403;86;21130;-74
2022/06/13 01:31:57;;;;;;;11.35;8.68;;;;;;;25.75;90.80;100190.64;1653899;84;21519;-74
2022/06/13 01:34:42;;;;;;;12.35;9.03;;;;;;;25.97;89.21;100205.34;1691989;83;21522;-73
2022/06/13 01:37:18;;;;;;;12.90;9.30;;;;;;;26.01;90.55;100219.81;1687391;83;21111;-72
2022/06/13 01:40:34;;;;;;;11.35;9.78;;;;;;;25.98;90.48;100217.55;1692420;83;21070;-73
2022/06/13 01:43:34;;;;;;;14.00;9.83;;;;;;;25.90;92.47;100221.05;1688955;84;21153;-74
2022/06/13 01:46:32;;;;;;;13.83;9.78;;;;;;;26.16;91.21;100214.63;1690045;83;21019;-73
2022/06/13 01:49:11;;;;;;;12.50;9.53;;;;;;;26.30;89.93;100216.99;1689489;83;21040;-73
2022/06/13 01:51:55;;;;;;;12.28;9.43;;;;;;;26.14;90.80;100217.94;1690050;84;21055;-73
2022/06/13 01:54:30;;;;;;;12.78;9.80;;;;;;;26.11;90.95;100228.31;1689479;83;21040;-74
2022/06/13 01:57:31;;;;;;;13.70;9.50;;;;;;;26.37;89.31;100232.42;1694704;84;21083;-73
2022/06/13 02:00:19;;;;;;;13.80;9.78;;;;;;;26.30;89.56;100230.19;1689351;84;21047;-73
2022/06/13 02:03:28;;;;;;;13.38;9.55;;;;;;;26.23;90.09;100229.23;1688625;83;21119;-73
2022/06/13 02:06:19;;;;;;;13.40;9.53;;;;;;;26.10;90.84;100236.43;1682540;83;22306;-73
2022/06/13 02:08:54;;;;;;;12.35;9.88;;;;;;;26.16;90.69;100227.81;1685968;84;21083;-73
2022/06/13 02:11:38;;;;;;;14.28;10.13;;;;;;;26.37;89.02;100233.74;1688278;84;21611;-73
2022/06/13 02:14:34;;;;;;;12.58;9.78;;;;;;;26.29;88.69;100240.41;1687013;84;21051;-74
2022/06/13 02:17:10;;;;;;;13.13;10.03;;;;;;;26.24;88.72;100242.27;1687087;83;21036;-73
2022/06/13 02:19:46;;;;;;;13.13;10.00;;;;;;;26.16;88.25;100244.96;1650045;86;21556;-73
2022/06/13 02:22:33;;;;;;;13.93;9.70;;;;;;;26.31;87.62;100251.61;1630411;87;21527;-73
2022/06/13 02:25:16;;;;;;;13.78;10.38;;;;;;;26.29;88.05;100250.96;1637719;87;21060;-74
2022/06/13 02:27:53;;;;;;;14.93;9.80;;;;;;;26.33;86.83;100251.74;1625737;87;21106;-73
2022/06/13 02:30:25;;;;;;;13.50;9.95;;;;;;;26.50;85.59;100250.28;1693442;83;21125;-72
2022/06/13 02:33:09;;;;;;;13.30;9.88;;;;;;;26.64;85.61;100259.28;1684060;83;21053;-73
2022/06/13 02:35:47;;;;;;;16.55;9.68;;;;;;;26.63;86.20;100254.51;1690093;84;21147;-73
2022/06/13 02:38:19;;;;;;;14.25;9.45;;;;;;;26.58;86.75;100256.38;1691100;83;21068;-73
2022/06/13 02:41:10;;;;;;;15.13;10.43;;;;;;;26.70;84.75;100258.09;1696041;83;21059;-73
2022/06/13 02:43:49;;;;;;;14.15;9.95;;;;;;;26.80;83.60;100265.73;1684109;84;21555;-73
2022/06/13 02:46:34;;;;;;;12.15;10.23;;;;;;;26.80;84.56;100276.30;1691677;84;21012;-73
2022/06/13 02:49:15;;;;;;;14.70;10.20;;;;;;;26.75;85.31;100280.80;1691141;83;21054;-73
2022/06/13 02:52:24;;;;;;;13.60;10.18;;;;;;;26.83;84.21;100285.19;1646166;87;21135;-73
2022/06/13 02:54:58;;;;;;;14.73;10.05;;;;;;;26.93;83.80;100271.73;1684696;83;21056;-73
2022/06/13 02:58:06;;;;;;;12.43;10.18;;;;;;;26.94;83.14;100268.89;1688420;84;21012;-73
2022/06/13 03:00:59;;;;;;;13.58;9.68;;;;;;;26.88;83.25;100270.12;1647779;87;21592;-73
2022/06/13 03:03:51;;;;;;;12.70;9.78;;;;;;;27.10;82.28;100272.38;1684137;84;21119;-72
2022/06/13 03:06:23;;;;;;;14.60;9.55;;;;;;;27.35;80.46;100270.30;1684829;84;21094;-72
2022/06/13 03:09:15;;;;;;;13.55;9.95;;;;;;;27.44;79.72;100269.22;1681576;84;21020;-72
2022/06/13 03:12:12;;;;;;;13.08;9.98;;;;;;;27.60;79.68;100270.03;1680332;85;21524;-72
2022/06/13 03:14:45;;;;;;;13.55;10.30;;;;;;;27.67;79.73;100265.11;1684724;84;21036;-72
2022/06/13 03:17:29;;;;;;;14.58;9.43;;;;;;;27.82;80.35;100270.39;1651414;86;21012;-72
2022/06/13 03:20:08;;;;;;;13.25;9.00;;;;;;;27.88;80.75;100264.86;1677511;84;21051;-72
2022/06/13 03:22:43;;;;;;;14.33;9.23;;;;;;;27.94;80.58;100260.15;1681518;84;21166;-72
2022/06/13 03:25:37;;;;;;;13.68;9.00;;;;;;;28.05;79.25;100258.86;1680329;84;21544;-72
2022/06/13 03:28:19;;;;;;;15.30;10.78;;;;;;;28.16;78.59;100255.69;1683530;85;21174;-72
2022/06/13 03:30:51;;;;;;;13.68;10.00;;;;;;;28.21;79.07;100258.61;1682602;84;21068;-72
2022/06/13 03:33:40;;;;;;;11.93;9.45;;;;;;;28.25;79.29;100260.38;1682108;85;21142;-72
2022/06/13 03:36:23;;;;;;;13.15;9.28;;;;;;;28.25;80.62;100263.02;1683298;84;21047;-72
2022/06/13 03:39:13;;;;;;;12.63;10.15;;;;;;;28.40;79.69;100261.11;1681556;84;21063;-72
2022/06/13 03:41:50;;;;;;;13.35;10.53;;;;;;;28.55;79.49;100260.56;1662806;86;21050;-72
2022/06/13 03:44:25;;;;;;;18.27;12.23;;;;;;;28.60;78.37;100259.17;1630475;87;21099;-72
2022/06/13 03:47:00;;;;;;;17.77;12.53;;;;;;;28.71;77.53;100264.77;1630134;87;21075;-72
2022/06/13 03:49:44;;;;;;;17.05;12.25;;;;;;;28.91;76.51;100264.91;1630546;87;21082;-72
2022/06/13 03:52:14;;;;;;;14.78;10.38;;;;;;;29.03;75.77;100271.79;1681359;85;21047;-73
2022/06/13 03:54:57;;;;;;;13.28;10.50;;;;;;;29.12;74.33;100275.97;1659370;86;21067;-73
2022/06/13 03:57:32;;;;;;;14.30;9.00;;;;;;;29.27;74.62;100275.84;1619344;88;21505;-73
2022/06/13 04:00:17;;;;;;;11.83;9.15;;;;;;;29.32;72.29;100264.15;1682921;84;21536;-73
2022/06/13 04:02:45;;;;;;;11.70;9.25;;;;;;;29.56;71.25;100272.12;1680879;84;21059;-72
2022/06/13 04:05:20;;;;;;;15.38;9.08;;;;;;;29.73;70.64;100275.77;1683718;84;21127;-73
2022/06/13 04:07:48;;;;;;;14.65;8.70;;;;;;;29.84;69.02;100275.70;1681286;85;21103;-72
2022/06/13 04:10:18;;;;;;;14.30;8.73;;;;;;;29.99;68.46;100283.48;1680521;84;21657;-73
2022/06/13 04:13:28;;;;;;;13.13;7.70;;;;;;;30.22;67.88;100287.12;1679512;84;21033;-73
2022/06/13 04:16:25;;;;;;;11.48;8.03;;;;;;;30.25;66.94;100284.88;1681868;84;21020;-72
2022/06/13 04:19:19;;;;;;;10.98;8.35;;;;;;;30.37;66.32;100282.45;1680182;84;21091;-73
2022/06/13 04:22:23;;;;;;;9.48;7.60;;;;;;;30.62;65.98;100280.52;1681116;84;21555;-73
2022/06/13 04:25:06;;;;;;;11.93;7.40;;;;;;;30.63;65.11;100280.31;1682055;84;21044;-72
2022/06/13 04:27:44;;;;;;;11.33;6.60;;;;;;;30.83;64.29;100288.80;1678212;84;21124;-72
2022/06/13 04:30:19;;;;;;;7.90;6.33;;;;;;;30.92;63.63;100285.75;1681103;84;21911;-72
2022/06/13 04:33:10;;;;;;;7.72;6.20;;;;;;;30.91;64.22;100283.30;1689775;83;21043;-72
2022/06/13 04:35:38;;;;;;;7.08;6.33;;;;;;;30.83;64.83;100288.80;1690790;83;21099;-71
2022/06/13 04:38:12;;;;;;;6.42;5.50;;;;;;;31.34;63.58;100287.58;1691713;83;21039;-73
2022/06/13 04:40:48;;;;;;;8.50;5.60;;;;;;;31.67;61.81;100290.67;1693723;83;21583;-72
2022/06/13 04:43:18;;;;;;;8.13;5.62;;;;;;;31.94;59.78;100293.20;1691695;83;21079;-72
2022/06/13 04:46:02;;;;;;;7.92;5.60;;;;;;;31.28;60.75;100288.94;1656145;83;21023;-73
2022/06/13 04:48:32;;;;;;;6.40;5.58;;;;;;;31.40;60.48;100285.92;1650674;85;21055;-72
2022/06/13 04:51:04;;;;;;;8.10;6.15;;;;;;;31.41;60.74;100286.73;1652189;86;21043;-72
2022/06/13 04:53:59;;;;;;;6.83;5.75;;;;;;;31.60;60.71;100289.88;1650093;85;21046;-72
2022/06/13 04:56:26;;;;;;;7.50;5.58;;;;;;;31.87;60.63;100293.20;1626863;86;21535;-72
2022/06/13 04:58:58;;;;;;;8.28;5.15;;;;;;;31.65;60.74;100297.21;1644101;86;21071;-73
2022/06/13 05:01:38;;;;;;;6.92;5.20;;;;;;;31.79;60.31;100295.31;1650429;85;21110;-72
2022/06/13 05:04:09;;;;;;;7.45;5.50;;;;;;;31.73;59.69;100301.80;1646616;86;21602;-72
2022/06/13 05:06:45;;;;;;;7.08;5.40;;;;;;;32.10;59.77;100307.36;1651778;86;21115;-72
2022/06/13 05:09:23;;;;;;;6.60;5.30;;;;;;;32.06;59.70;100301.35;1657447;86;21103;-72
2022/06/13 05:12:22;;;;;;;6.47;5.50;;;;;;;31.87;60.26;100303.86;1630626;86;21059;-73
2022/06/13 05:15:01;;;;;;;5.90;5.30;;;;;;;31.79;60.77;100303.30;1651858;86;21087;-73
2022/06/13 05:18:10;;;;;;;7.30;4.92;;;;;;;31.83;60.20;100301.84;1650021;86;21091;-73
2022/06/13 05:21:00;;;;;;;5.33;4.75;;;;;;;32.03;58.48;100305.77;1652607;86;21063;-73
2022/06/13 05:23:45;;;;;;;7.08;4.87;;;;;;;32.03;58.48;100305.77;1651757;86;21573;-73
2022/06/13 05:26:13;;;;;;;8.70;5.78;;;;;;;32.27;58.43;100308.17;1651795;86;21526;-72
2022/06/13 05:28:40;;;;;;;8.73;5.40;;;;;;;32.06;59.39;100302.16;1662233;86;21086;-73
2022/06/13 05:31:12;;;;;;;8.78;5.58;;;;;;;32.12;58.98;100309.30;1652209;86;21063;-72
2022/06/13 05:33:42;;;;;;;6.95;5.20;;;;;;;32.20;59.59;100305.56;1655254;86;21036;-72
2022/06/13 05:36:16;;;;;;;8.30;5.78;;;;;;;32.16;59.65;100307.52;1630483;87;21198;-73
2022/06/13 05:38:51;;;;;;;8.55;5.53;;;;;;;32.00;59.11;100303.54;1683333;84;21099;-72
2022/06/13 05:41:19;;;;;;;7.12;5.78;;;;;;;32.49;58.42;100308.63;1679094;84;21044;-72
2022/06/13 05:43:47;;;;;;;9.70;5.72;;;;;;;32.49;58.42;100308.63;1682079;84;21555;-72
2022/06/13 05:46:28;;;;;;;7.92;5.78;;;;;;;32.60;58.47;100305.27;1680058;84;21067;-72
2022/06/13 05:48:56;;;;;;;9.55;5.85;;;;;;;32.66;58.15;100310.25;1674375;85;21091;-73
2022/06/13 05:51:23;;;;;;;7.87;5.22;;;;;;;32.67;58.06;100310.57;1675491;85;21049;-73
2022/06/13 05:53:51;;;;;;;8.25;5.45;;;;;;;32.64;58.25;100309.66;1678923;85;21059;-72
2022/06/13 05:56:19;;;;;;;5.92;5.35;;;;;;;32.41;57.63;100312.38;1685246;85;21036;-73
2022/06/13 05:58:47;;;;;;;7.87;5.55;;;;;;;32.53;56.38;100311.97;1684405;84;21123;-73
2022/06/13 06:01:14;;;;;;;8.28;6.05;;;;;;;32.73;56.85;100307.03;1682449;84;21024;-73
2022/06/13 06:03:44;;;;;;;10.10;6.12;;;;;;;32.98;56.87;100309.66;1682721;84;21071;-72
2022/06/13 06:06:21;;;;;;;5.33;4.80;;;;;;;32.70;57.33;100313.59;1682158;84;21040;-72
2022/06/13 06:08:49;;;;;;;5.87;4.42;;;;;;;32.81;56.42;100309.42;1677675;85;21008;-73
2022/06/13 06:11:17;;;;;;;8.98;6.70;;;;;;;32.86;56.09;100304.22;1680548;84;21011;-72
2022/06/13 06:13:44;;;;;;;7.97;6.50;;;;;;;33.07;56.18;100304.84;1680341;84;21040;-74
2022/06/13 06:16:20;;;;;;;9.85;6.40;;;;;;;33.12;56.68;100307.18;1680787;85;21008;-73
2022/06/13 06:18:47;;;;;;;8.03;6.10;;;;;;;33.11;55.45;100300.72;1677957;84;21044;-73
2022/06/13 06:21:15;;;;;;;8.90;6.28;;;;;;;33.02;56.80;100314.03;1677136;85;21358;-73
2022/06/13 06:23:42;;;;;;;26.48;20.57;;;;;;;33.09;56.52;100306.30;1683263;85;21078;-72
2022/06/13 06:26:13;;;;;;;10.03;7.65;;;;;;;32.87;56.55;100306.40;1653079;85;21137;-73
2022/06/13 06:28:40;;;;;;;14.07;9.58;;;;;;;33.29;55.66;100301.25;1682525;83;21043;-73
2022/06/13 06:31:10;;;;;;;9.60;8.48;;;;;;;33.45;55.94;100306.52;1684491;85;21146;-73
2022/06/13 06:33:37;;;;;;;14.18;7.65;;;;;;;33.24;56.79;100300.59;1682964;84;21544;-72
2022/06/13 06:36:06;;;;;;;9.05;7.15;;;;;;;33.39;56.26;100306.08;1660889;85;21067;-73
2022/06/13 06:38:33;;;;;;;8.35;5.92;;;;;;;33.47;57.20;100303.10;1681805;84;21052;-72
2022/06/13 06:41:01;;;;;;;6.78;5.45;;;;;;;33.66;55.77;100298.58;1681164;84;21221;-72
2022/06/13 06:43:28;;;;;;;6.78;5.33;;;;;;;33.63;55.57;100296.38;1683462;85;21036;-73
2022/06/13 06:45:57;;;;;;;9.80;5.95;;;;;;;33.71;54.99;100302.73;1682613;84;21551;-72
2022/06/13 06:48:26;;;;;;;10.68;6.47;;;;;;;33.62;55.11;100302.23;1680431;84;21111;-72
2022/06/13 06:50:53;;;;;;;8.83;6.55;;;;;;;33.70;54.88;100301.92;1683258;84;20997;-73
2022/06/13 06:53:24;;;;;;;9.03;6.30;;;;;;;33.68;54.97;100298.67;1684512;85;21065;-73
2022/06/13 07:01:23;;;;;;;6.40;5.50;;;;;;;34.25;52.85;100299.64;1683397;85;21043;-73
2022/06/13 07:03:50;;;;;;;7.92;5.53;;;;;;;34.49;54.08;100299.66;1682466;85;21602;-73
2022/06/13 07:06:19;;;;;;;7.17;5.62;;;;;;;34.73;53.29;100292.49;1681723;84;21054;-72
2022/06/13 07:08:46;;;;;;;6.42;5.75;;;;;;;34.53;53.82;100303.48;1680721;83;21148;-74
2022/06/13 07:14:09;;;;;;;8.10;5.30;;;;;;;34.72;52.55;100290.88;1681706;84;21542;-74
2022/06/13 07:16:37;;;;;;;7.35;5.60;;;;;;;34.63;51.97;100293.57;1683947;84;21064;-73
2022/06/13 07:19:05;;;;;;;5.67;5.17;;;;;;;34.66;53.52;100299.30;1681274;85;21044;-74
2022/06/13 07:21:33;;;;;;;7.12;5.20;;;;;;;35.14;52.47;100298.77;1685120;84;21049;-73
2022/06/13 07:24:00;;;;;;;5.97;5.37;;;;;;;35.20;51.84;100307.22;1679826;84;21087;-73
2022/06/13 07:26:27;;;;;;;7.17;5.37;;;;;;;35.34;51.38;100308.28;1688218;84;21552;-73
2022/06/13 07:28:55;;;;;;;7.22;5.53;;;;;;;35.17;52.30;100311.69;1678689;84;21619;-72
2022/06/13 07:31:39;;;;;;;5.60;5.10;;;;;;;35.54;50.27;100307.34;1642753;86;21579;-72
2022/06/13 07:34:20;;;;;;;8.13;5.30;;;;;;;35.68;49.85;100314.07;1643408;86;21567;-73
2022/06/13 07:36:52;;;;;;;6.15;5.00;;;;;;;35.18;50.01;100315.16;1644564;87;21004;-73
2022/06/13 07:39:21;;;;;;;6.85;5.15;;;;;;;35.21;50.33;100313.38;1615968;88;21141;-73
2022/06/13 07:41:50;;;;;;;5.40;4.85;;;;;;;35.33;50.32;100306.66;1690614;83;21098;-73
2022/06/13 07:44:37;;;;;;;5.60;5.05;;;;;;;35.38;48.23;100309.43;1691029;83;21106;-74
2022/06/13 07:47:06;;;;;;;6.65;4.78;;;;;;;35.46;49.08;100309.05;1688156;84;21126;-73
2022/06/13 07:49:33;;;;;;;8.40;5.08;;;;;;;35.77;49.21;100312.34;1694539;84;21547;-73
2022/06/13 07:52:01;;;;;;;6.53;5.03;;;;;;;35.87;49.92;100314.71;1682060;84;21603;-73
2022/06/13 07:54:29;;;;;;;5.92;4.90;;;;;;;35.49;48.86;100316.62;1691034;83;21020;-72
2022/06/13 07:56:56;;;;;;;5.50;5.00;;;;;;;35.65;48.64;100313.22;1689506;83;21040;-73
2022/06/13 07:59:29;;;;;;;6.75;5.08;;;;;;;35.66;48.19;100316.17;1692144;84;21016;-73
2022/06/13 08:01:58;;;;;;;8.55;5.00;;;;;;;35.40;48.56;100306.80;1688424;83;21538;-73
2022/06/13 08:04:25;;;;;;;9.73;5.37;;;;;;;35.51;49.42;100307.83;1689733;84;21043;-73
2022/06/13 08:06:53;;;;;;;6.40;4.53;;;;;;;35.44;50.04;100307.95;1690100;84;21047;-73
2022/06/13 08:09:20;;;;;;;7.05;5.22;;;;;;;35.84;48.60;100304.99;1691395;83;21123;-74
2022/06/13 08:11:50;;;;;;;5.40;4.70;;;;;;;35.66;48.39;100312.69;1695215;83;21048;-73
2022/06/13 08:14:18;;;;;;;7.55;4.95;;;;;;;35.89;48.43;100309.92;1685626;84;21495;-73
2022/06/13 08:16:45;;;;;;;9.48;5.55;;;;;;;35.79;48.73;100315.60;1687535;84;21551;-73
2022/06/13 08:19:12;;;;;;;6.45;5.20;;;;;;;36.11;48.43;100314.58;1686835;83;21583;-73
2022/06/13 08:21:40;;;;;;;5.72;5.08;;;;;;;36.36;48.10;100312.89;1689916;83;21574;-73
2022/06/13 08:24:07;;;;;;;5.80;5.20;;;;;;;35.51;48.48;100318.01;1686874;84;21550;-73
2022/06/13 08:26:35;;;;;;;6.62;5.20;;;;;;;35.45;47.87;100314.14;1690685;84;21106;-73
2022/06/13 08:29:05;;;;;;;6.37;4.80;;;;;;;35.85;46.09;100316.81;1693981;84;21094;-74
2022/06/13 08:31:35;;;;;;;6.83;5.30;;;;;;;36.12;45.70;100316.75;1693185;83;21547;-73
2022/06/13 08:34:02;;;;;;;6.30;5.17;;;;;;;35.99;45.59;100315.16;1692784;84;21028;-73
2022/06/13 08:36:31;;;;;;;5.87;5.08;;;;;;;35.92;45.26;100309.97;1687019;84;21103;-72
2022/06/13 08:38:58;;;;;;;6.20;5.37;;;;;;;36.18;45.21;100311.79;1689986;83;21071;-74
2022/06/13 08:41:55;;;;;;;6.78;5.20;;;;;;;35.89;44.33;100309.92;1691145;83;21040;-72
2022/06/13 08:44:43;;;;;;;11.83;5.60;;;;;;;36.06;43.99;100303.78;1687339;83;21035;-73
2022/06/13 08:47:28;;;;;;;5.72;5.20;;;;;;;35.78;44.72;100300.59;1688964;83;21052;-73
2022/06/13 08:50:28;;;;;;;9.25;5.35;;;;;;;36.13;43.60;100301.75;1688704;84;21102;-73
2022/06/13 08:53:14;;;;;;;8.65;5.15;;;;;;;36.25;43.50;100301.70;1676388;84;21149;-73
2022/06/13 08:55:48;;;;;;;8.10;4.80;;;;;;;36.08;42.68;100297.13;1666354;85;21040;-72
2022/06/13 08:58:33;;;;;;;6.75;5.40;;;;;;;36.05;41.23;100290.92;1683644;85;21111;-73
2022/06/13 09:01:18;;;;;;;6.55;5.12;;;;;;;36.01;41.42;100296.98;1680833;83;21039;-73
2022/06/13 09:04:02;;;;;;;7.95;4.53;;;;;;;36.18;40.74;100290.35;1677063;84;21087;-73
2022/06/13 09:06:52;;;;;;;5.50;4.70;;;;;;;36.47;41.71;100292.41;1659261;85;21476;-73
2022/06/13 09:09:31;;;;;;;7.70;4.87;;;;;;;36.46;40.70;100288.13;1637573;86;21066;-74
2022/06/13 09:12:19;;;;;;;7.03;5.05;;;;;;;36.55;41.15;100292.00;1680065;85;21930;-73
2022/06/13 09:14:54;;;;;;;5.95;5.17;;;;;;;36.55;40.50;100287.17;1656668;85;21051;-73
2022/06/13 09:17:29;;;;;;;10.38;5.37;;;;;;;36.68;38.98;100288.19;1693512;84;21067;-72
2022/06/13 09:20:29;;;;;;;7.30;5.53;;;;;;;36.80;38.40;100288.09;1694950;83;21063;-74
2022/06/13 09:23:31;;;;;;;9.30;5.92;;;;;;;36.95;41.87;100284.83;1692925;83;21084;-73
2022/06/13 09:26:28;;;;;;;9.20;5.87;;;;;;;36.74;39.35;100283.17;1691789;84;21090;-73
2022/06/13 09:29:12;;;;;;;8.30;6.05;;;;;;;36.60;38.71;100282.70;1690812;83;21027;-73
2022/06/13 09:31:46;;;;;;;10.43;5.67;;;;;;;36.57;38.95;100280.50;1690921;83;21169;-73
2022/06/13 09:34:30;;;;;;;9.08;5.75;;;;;;;36.78;39.44;100278.97;1663542;84;21024;-73
2022/06/13 09:37:08;;;;;;;11.53;6.45;;;;;;;36.72;38.59;100286.63;1686940;84;21091;-73
2022/06/13 09:39:38;;;;;;;9.05;6.10;;;;;;;36.96;39.07;100283.75;1691516;83;21098;-73
2022/06/13 09:42:36;;;;;;;9.48;6.00;;;;;;;37.03;39.32;100280.37;1692497;83;21243;-74
2022/06/13 09:45:35;;;;;;;8.05;5.87;;;;;;;36.94;41.19;100286.67;1690585;83;22140;-73
2022/06/13 09:48:34;;;;;;;8.88;5.92;;;;;;;37.48;41.11;100279.31;1690840;83;21099;-74
2022/06/13 09:51:21;;;;;;;6.97;5.90;;;;;;;37.25;39.50;100289.27;1689491;84;21043;-73
2022/06/13 09:54:11;;;;;;;9.30;6.28;;;;;;;37.39;38.80;100284.84;1675310;83;21149;-73
2022/06/13 09:56:57;;;;;;;11.70;6.08;;;;;;;37.59;38.92;100280.25;1682675;84;21582;-74
2022/06/13 09:59:52;;;;;;;11.28;5.90;;;;;;;37.58;38.75;100288.02;1668074;85;21099;-73
2022/06/13 10:02:29;;;;;;;;;;;;;;;37.32;38.92;100286.92;1681445;84;21554;-74
2022/06/13 10:05:40;;;;;;;7.78;5.75;;;;;;;37.01;38.31;100281.15;1668433;84;20215;-74
2022/06/13 10:08:27;;;;;;;10.53;5.42;;;;;;;37.25;38.39;100279.86;1681454;84;21072;-74
2022/06/13 10:11:04;;;;;;;7.10;5.40;;;;;;;37.68;37.23;100279.55;1690099;83;23277;-74
2022/06/13 10:14:09;;;;;;;9.00;5.53;;;;;;;37.54;36.67;100281.53;1692187;84;21206;-74
2022/06/13 10:16:50;;;;;;;8.40;5.65;;;;;;;37.46;38.09;100274.73;1681935;83;21090;-73
2022/06/13 10:19:47;;;;;;;8.65;5.53;;;;;;;37.75;36.82;100275.31;1684164;83;21036;-75
2022/06/13 10:22:31;;;;;;;6.90;5.15;;;;;;;37.91;36.68;100278.95;1576481;89;21140;-75
2022/06/13 10:25:42;;;;;;;6.20;5.45;;;;;;;37.95;37.40;100269.86;1669416;84;21555;-73
2022/06/13 10:28:47;;;;;;;8.98;5.33;;;;;;;38.12;36.80;100267.90;1680534;83;21098;-73
2022/06/13 10:31:48;;;;;;;8.43;4.75;;;;;;;38.21;36.90;100269.57;1687022;83;21610;-74
2022/06/13 10:34:48;;;;;;;8.25;5.17;;;;;;;37.98;36.35;100270.67;1689957;84;21040;-75
2022/06/13 10:37:27;;;;;;;9.53;5.53;;;;;;;37.87;36.20;100266.56;1679389;83;21111;-74
2022/06/13 10:39:58;;;;;;;6.25;5.55;;;;;;;37.86;35.61;100263.61;1690644;84;21569;-74
2022/06/13 10:42:30;;;;;;;5.75;5.12;;;;;;;38.19;35.73;100257.72;1692107;83;21055;-74
2022/06/13 10:44:58;;;;;;;9.00;5.20;;;;;;;38.35;36.05;100253.27;1691964;84;21031;-74
2022/06/13 10:47:30;;;;;;;6.83;4.78;;;;;;;38.04;36.00;100254.88;1685739;84;21598;-73
2022/06/13 10:50:11;;;;;;;8.18;5.00;;;;;;;38.53;36.30;100255.31;1660614;84;21043;-73
2022/06/13 10:52:46;;;;;;;7.03;5.00;;;;;;;38.68;36.53;100244.62;1687199;83;21020;-74
2022/06/13 10:55:18;;;;;;;10.18;5.25;;;;;;;38.77;36.50;100245.75;1687636;83;21152;-73
2022/06/13 10:57:55;;;;;;;6.70;4.83;;;;;;;38.97;36.48;100245.07;1688593;83;21558;-73
2022/06/13 11:00:28;;;;;;;9.60;5.20;;;;;;;38.99;35.89;100250.17;1686886;83;21055;-74
2022/06/13 11:03:13;;;;;;;6.60;4.70;;;;;;;38.12;35.35;100254.97;1693030;83;21098;-74
2022/06/13 11:05:55;;;;;;;5.75;4.50;;;;;;;38.55;34.92;100255.86;1666967;84;21047;-74
2022/06/13 11:08:23;;;;;;;7.10;5.08;;;;;;;38.45;36.62;100242.58;1691940;84;21044;-74
2022/06/13 11:10:58;;;;;;;10.08;4.87;;;;;;;39.06;37.26;100239.98;1688404;83;21099;-74
2022/06/13 11:13:34;;;;;;;8.58;5.12;;;;;;;39.30;35.92;100244.37;1684068;84;21034;-75
2022/06/13 11:22:45;;;;;;;6.65;4.72;;;;;;;38.79;34.68;100236.05;1690652;83;21187;-73
2022/06/13 11:25:22;;;;;;;8.48;4.50;;;;;;;39.25;34.64;100224.95;1682623;84;21150;-74
2022/06/13 11:28:04;;;;;;;6.40;4.58;;;;;;;39.58;35.23;100228.30;1682553;84;21055;-75
2022/06/13 11:30:53;;;;;;;6.53;4.05;;;;;;;38.77;34.18;100232.81;1647639;85;21043;-74
2022/06/13 11:33:32;;;;;;;5.92;4.37;;;;;;;39.25;34.39;100224.14;1635896;86;21155;-74
2022/06/13 11:36:12;;;;;;;5.78;4.20;;;;;;;39.25;34.73;100223.59;1639232;86;21130;-74
2022/06/13 11:38:56;;;;;;;7.45;4.20;;;;;;;38.68;35.31;100216.37;1655331;84;21567;-74
2022/06/13 11:41:42;;;;;;;6.97;4.10;;;;;;;38.87;35.77;100212.16;1654456;84;21047;-74
2022/06/13 11:44:19;;;;;;;4.58;3.90;;;;;;;38.82;35.65;100212.12;1651047;86;21035;-74
2022/06/13 11:47:02;;;;;;;5.28;4.15;;;;;;;37.98;35.32;100216.42;1651014;86;21059;-73
2022/06/13 11:49:36;;;;;;;5.20;3.95;;;;;;;37.84;35.88;100206.63;1647219;86;21078;-74
2022/06/13 11:53:35;;;;;;;7.05;4.40;;;;;;;37.93;35.79;100208.30;1651606;86;21578;-73
2022/06/13 11:54:56;;;;;;;7.80;4.08;;;;;;;38.40;35.91;100204.89;1651345;86;21043;-73
2022/06/13 11:57:36;;;;;;;6.65;3.95;;;;;;;38.67;35.63;100202.13;1646418;86;21015;-74
2022/06/13 12:00:20;;;;;;;5.45;3.80;;;;;;;38.89;35.86;100199.77;1643804;86;21142;-74
2022/06/13 12:02:59;;;;;;;8.05;4.08;;;;;;;38.84;34.78;100195.73;1647816;86;21107;-73
2022/06/13 12:05:40;;;;;;;4.12;3.65;;;;;;;39.23;35.31;100195.33;1639718;87;21111;-74
2022/06/13 12:08:22;;;;;;;5.83;4.22;;;;;;;39.56;34.87;100197.28;1647200;86;21059;-73
2022/06/13 12:11:00;;;;;;;6.45;3.65;;;;;;;39.07;33.83;100197.17;1646893;86;21594;-74
2022/06/13 12:13:37;;;;;;;8.55;4.20;;;;;;;38.92;34.50;100185.00;1653294;85;21094;-73
2022/06/13 12:16:33;;;;;;;5.60;4.20;;;;;;;39.40;35.10;100187.83;1653339;86;21054;-74
2022/06/13 12:19:19;;;;;;;6.78;4.10;;;;;;;39.41;36.29;100176.00;1650440;86;21053;-73
2022/06/13 12:22:02;;;;;;;4.70;3.77;;;;;;;39.85;34.39;100177.37;1643737;86;21031;-73
2022/06/13 12:24:43;;;;;;;4.28;3.72;;;;;;;39.97;33.68;100172.53;1646038;86;21114;-73
2022/06/13 12:27:16;;;;;;;4.87;3.90;;;;;;;38.87;34.05;100166.94;1647772;87;21063;-75
2022/06/13 12:30:20;;;;;;;7.03;3.97;;;;;;;38.70;34.24;100164.46;1650901;85;21091;-73